aviador You're here:

OAIX Decoded Metar

in
Report Time2018-05-21 17:58:00
UTC Time2018-05-21 18:18:00
Flight Rules vfr VFR
Wind050° at 06 kt
W.Decomp.*RWY 03: 5.6 kt HW 2.1 kt RCW
W.Rank050° ranks 32
Current wind is above 050° avg. (4.9)
Visibility9999 m
Phenomena:N/A
Clouds:N/A
Expected CloudBase > 3,600 ft AGL from Temp-Dew spread
CeilingNone
Temp14°C
Dew Point05°C (55% RH)
AAT10.7°C
QNH1022 hPa
Raw Report
METAR OAIX 211758Z 05006KT 9999 CLR 14/05 A3018 RMK AO2A SLPNO T01430046
10183 20137 50007 $=

Extra information for OAIX:More info

Social comments